Time;durP1;ratioP1;P1;durP2;ratioP2;P2;SDS_P1;SDS_P2;PMS_P1;PMS_P2;Temp;Humidity;BMP_temperature;BMP_pressure;BME280_temperature;BME280_humidity;BME280_pressure;Samples;Min_cycle;Max_cycle;Signal;HPM_P1;HPM_P2
2022/04/26 03:37:44;;;;;;;;;;;;;;;;;;5114317;28;20373;-43
2022/04/26 03:40:10;;;;;;;;;;;;;;;;;;5113883;28;20363;-47
2022/04/26 03:42:37;;;;;;;;;;;;;;;;;;5114027;28;20007;-53
2022/04/26 03:45:03;;;;;;;;;;;;;;;;;;5113458;28;20016;-53
2022/04/26 03:47:30;;;;;;;;;;;;;;;;;;5114308;28;19943;-51
2022/04/26 03:49:56;;;;;;;;;;;;;;;;;;5114076;28;20358;-49
2022/04/26 03:52:23;;;;;;;;;;;;;;;;;;5112989;28;19922;-46
2022/04/26 03:54:49;;;;;;;;;;;;;;;;;;5114220;28;19934;-55
2022/04/26 03:57:16;;;;;;;;;;;;;;;;;;5104263;28;19958;-51
2022/04/26 03:59:42;;;;;;;;;;;;;;;;;;5093595;28;19927;-52
2022/04/26 04:02:09;;;;;;;;;;;;;;;;;;5093915;28;19908;-46
2022/04/26 04:04:35;;;;;;;;;;;;;;;;;;5092972;28;19916;-43
2022/04/26 04:07:03;;;;;;;;;;;;;;;;;;5093566;28;19920;-53
2022/04/26 04:09:30;;;;;;;;;;;;;;;;;;5108864;28;19951;-48
2022/04/26 04:11:56;;;;;;;;;;;;;;;;;;5113427;28;19912;-47
2022/04/26 04:14:23;;;;;;;;;;;;;;;;;;5113248;28;19910;-49
2022/04/26 04:16:49;;;;;;;;;;;;;;;;;;5113144;28;19961;-52
2022/04/26 04:19:19;;;;;;;;;;;;;;;;;;5113162;28;20366;-44
2022/04/26 04:21:46;;;;;;;;;;;;;;;;;;5113571;28;20258;-49
2022/04/26 04:24:12;;;;;;;;;;;;;;;;;;5113354;28;20304;-50
2022/04/26 04:26:38;;;;;;;;;;;;;;;;;;5113062;28;19907;-50
2022/04/26 04:29:05;;;;;;;;;;;;;;;;;;5113005;28;19976;-51
2022/04/26 04:31:32;;;;;;;;;;;;;;;;;;5113305;28;19908;-48
2022/04/26 04:33:59;;;;;;;;;;;;;;;;;;5113101;28;19916;-48
2022/04/26 04:36:27;;;;;;;;;;;;;;;;;;5112704;28;20369;-43
2022/04/26 04:38:53;;;;;;;;;;;;;;;;;;5112242;28;19923;-53
2022/04/26 04:41:20;;;;;;;;;;;;;;;;;;5112827;28;19915;-57
2022/04/26 04:43:46;;;;;;;;;;;;;;;;;;5113070;28;19935;-52
2022/04/26 04:46:13;;;;;;;;;;;;;;;;;;5112402;28;19908;-55
2022/04/26 04:48:39;;;;;;;;;;;;;;;;;;5111345;28;20312;-48
2022/04/26 04:51:07;;;;;;;;;;;;;;;;;;5112762;28;19911;-55
2022/04/26 04:53:34;;;;;;;;;;;;;;;;;;5112735;28;19908;-45
2022/04/26 04:56:00;;;;;;;;;;;;;;;;;;5112773;28;19927;-44
2022/04/26 04:58:27;;;;;;;;;;;;;;;;;;5112898;28;19952;-56
2022/04/26 05:00:53;;;;;;;;;;;;;;;;;;5111679;28;19915;-53
2022/04/26 05:03:19;;;;;;;;;;;;;;;;;;5112221;28;19961;-56
2022/04/26 05:05:46;;;;;;;;;;;;;;;;;;5112725;28;19923;-52
2022/04/26 05:08:12;;;;;;;;;;;;;;;;;;5112791;28;19915;-54
2022/04/26 05:10:39;;;;;;;;;;;;;;;;;;5112912;28;19908;-49
2022/04/26 05:13:06;;;;;;;;;;;;;;;;;;5112368;28;20422;-54
2022/04/26 05:15:33;;;;;;;;;;;;;;;;;;5112993;28;19915;-54
2022/04/26 05:17:59;;;;;;;;;;;;;;;;;;5112851;28;19911;-44
2022/04/26 05:20:26;;;;;;;;;;;;;;;;;;5112561;28;20389;-56
2022/04/26 05:25:39;;;;;;;;;;;;;;;;;;5113118;28;19966;-56
2022/04/26 05:28:06;;;;;;;;;;;;;;;;;;5112588;28;19914;-54
2022/04/26 05:30:32;;;;;;;;;;;;;;;;;;5112619;28;19936;-56
2022/04/26 05:32:59;;;;;;;;;;;;;;;;;;5112340;28;19912;-55
2022/04/26 05:35:25;;;;;;;;;;;;;;;;;;5111674;28;19915;-52
2022/04/26 05:37:52;;;;;;;;;;;;;;;;;;5112063;28;20029;-58
2022/04/26 05:40:18;;;;;;;;;;;;;;;;;;5112460;28;19912;-56
2022/04/26 05:42:45;;;;;;;;;;;;;;;;;;5111970;28;19981;-54
2022/04/26 05:45:11;;;;;;;;;;;;;;;;;;5112076;28;19918;-52
2022/04/26 05:47:38;;;;;;;;;;;;;;;;;;5114619;28;19911;-57
2022/04/26 05:50:04;;;;;;;;;;;;;;;;;;5116263;28;19948;-55
2022/04/26 05:52:31;;;;;;;;;;;;;;;;;;5116182;27;19912;-50
2022/04/26 05:54:58;;;;;;;;;;;;;;;;;;5115993;28;19915;-48
2022/04/26 05:57:25;;;;;;;;;;;;;;;;;;5115953;28;19915;-47
2022/04/26 05:59:52;;;;;;;;;;;;;;;;;;5116291;28;19912;-52
2022/04/26 06:02:18;;;;;;;;;;;;;;;;;;5115596;28;20003;-55
2022/04/26 06:04:45;;;;;;;;;;;;;;;;;;5115852;27;19967;-45
2022/04/26 06:07:11;;;;;;;;;;;;;;;;;;5115030;28;19912;-54
2022/04/26 06:09:38;;;;;;;;;;;;;;;;;;5115564;28;19923;-52
2022/04/26 06:12:04;;;;;;;;;;;;;;;;;;5115736;28;19908;-56
2022/04/26 06:14:31;;;;;;;;;;;;;;;;;;5116055;27;19912;-54
2022/04/26 06:16:57;;;;;;;;;;;;;;;;;;5114464;28;20326;-57
2022/04/26 06:19:24;;;;;;;;;;;;;;;;;;5115937;28;19976;-54
2022/04/26 06:21:50;;;;;;;;;;;;;;;;;;5114116;28;20002;-51
2022/04/26 06:24:17;;;;;;;;;;;;;;;;;;5115941;28;19984;-51
2022/04/26 06:26:43;;;;;;;;;;;;;;;;;;5113838;28;19908;-50
2022/04/26 06:29:10;;;;;;;;;;;;;;;;;;5114065;28;19923;-51
2022/04/26 06:31:36;;;;;;;;;;;;;;;;;;5115334;28;19907;-47
2022/04/26 06:34:03;;;;;;;;;;;;;;;;;;5115417;28;19907;-51
2022/04/26 06:36:29;;;;;;;;;;;;;;;;;;5114722;28;19908;-48
2022/04/26 06:38:56;;;;;;;;;;;;;;;;;;5115201;28;19915;-49
2022/04/26 06:41:22;;;;;;;;;;;;;;;;;;5115495;28;20385;-49
2022/04/26 06:43:49;;;;;;;;;;;;;;;;;;5114850;28;19908;-53
2022/04/26 06:46:15;;;;;;;;;;;;;;;;;;5115048;28;19922;-53
2022/04/26 06:48:43;;;;;;;;;;;;;;;;;;5115271;28;19967;-46
2022/04/26 06:51:10;;;;;;;;;;;;;;;;;;5114855;28;20366;-51
2022/04/26 06:53:36;;;;;;;;;;;;;;;;;;5114675;28;19907;-48
2022/04/26 06:56:03;;;;;;;;;;;;;;;;;;5114621;28;19908;-54
2022/04/26 06:58:30;;;;;;;;;;;;;;;;;;5113929;28;19976;-47
2022/04/26 07:00:57;;;;;;;;;;;;;;;;;;5115110;28;19903;-59
2022/04/26 07:03:23;;;;;;;;;;;;;;;;;;5114849;28;19911;-55
2022/04/26 07:05:51;;;;;;;;;;;;;;;;;;5114976;28;19994;-52
2022/04/26 07:08:18;;;;;;;;;;;;;;;;;;5115176;28;20382;-49
2022/04/26 07:10:44;;;;;;;;;;;;;;;;;;5114258;28;19981;-55
2022/04/26 07:13:15;;;;;;;;;;;;;;;;;;5114171;27;19912;-55
2022/04/26 07:15:41;;;;;;;;;;;;;;;;;;5114542;28;19965;-50
2022/04/26 07:18:08;;;;;;;;;;;;;;;;;;5114912;28;19915;-50
2022/04/26 07:20:34;;;;;;;;;;;;;;;;;;5113348;28;20243;-51
2022/04/26 07:23:01;;;;;;;;;;;;;;;;;;5113505;28;20298;-48
2022/04/26 07:25:27;;;;;;;;;;;;;;;;;;5114382;28;20047;-54
2022/04/26 07:27:54;;;;;;;;;;;;;;;;;;5113554;28;19915;-54
2022/04/26 07:30:20;;;;;;;;;;;;;;;;;;5114032;28;19915;-47
2022/04/26 07:35:32;;;;;;;;;;;;;;;;;;5095976;28;19914;-48
2022/04/26 07:37:58;;;;;;;;;;;;;;;;;;5093172;28;19920;-50
2022/04/26 07:40:24;;;;;;;;;;;;;;;;;;5092810;28;20334;-48
2022/04/26 07:42:52;;;;;;;;;;;;;;;;;;5093661;28;20282;-47
2022/04/26 07:45:18;;;;;;;;;;;;;;;;;;5093560;28;19961;-55
2022/04/26 07:47:45;;;;;;;;;;;;;;;;;;5105335;28;19926;-51
2022/04/26 07:50:11;;;;;;;;;;;;;;;;;;5113945;28;19943;-53
2022/04/26 07:52:38;;;;;;;;;;;;;;;;;;5113784;28;19908;-50
2022/04/26 07:55:04;;;;;;;;;;;;;;;;;;5113683;28;19908;-49
2022/04/26 07:57:30;;;;;;;;;;;;;;;;;;5113741;28;20358;-50
2022/04/26 07:59:58;;;;;;;;;;;;;;;;;;5113920;28;20018;-57
2022/04/26 08:02:24;;;;;;;;;;;;;;;;;;5105296;28;19916;-54
2022/04/26 08:04:51;;;;;;;;;;;;;;;;;;5093228;28;19927;-50
2022/04/26 08:07:17;;;;;;;;;;;;;;;;;;5093120;28;19908;-55
2022/04/26 08:09:44;;;;;;;;;;;;;;;;;;5091069;28;19916;-54
2022/04/26 08:12:10;;;;;;;;;;;;;;;;;;5092922;28;19912;-55
2022/04/26 08:14:37;;;;;;;;;;;;;;;;;;5093307;28;19915;-51
2022/04/26 08:17:03;;;;;;;;;;;;;;;;;;5108770;28;19915;-58
2022/04/26 08:19:30;;;;;;;;;;;;;;;;;;5112751;28;19912;-55
2022/04/26 08:21:56;;;;;;;;;;;;;;;;;;5112166;28;20269;-53
2022/04/26 08:27:22;;;;;;;;;;;;;;;;;;5113012;28;19915;-53
2022/04/26 08:29:49;;;;;;;;;;;;;;;;;;5112955;28;19960;-50
2022/04/26 08:32:16;;;;;;;;;;;;;;;;;;5113041;28;19908;-53
2022/04/26 08:34:42;;;;;;;;;;;;;;;;;;5113215;28;20289;-52
2022/04/26 08:37:09;;;;;;;;;;;;;;;;;;5113532;28;20322;-53
2022/04/26 08:39:35;;;;;;;;;;;;;;;;;;5113335;28;19915;-56
2022/04/26 08:42:02;;;;;;;;;;;;;;;;;;5113173;28;20003;-53
2022/04/26 08:44:28;;;;;;;;;;;;;;;;;;5113509;27;19908;-54
2022/04/26 08:52:24;;;;;;;;;;;;;;;;;;5093052;28;20326;-49
2022/04/26 08:54:50;;;;;;;;;;;;;;;;;;5093567;28;20018;-54
2022/04/26 08:57:17;;;;;;;;;;;;;;;;;;5112320;28;19915;-53
2022/04/26 08:59:43;;;;;;;;;;;;;;;;;;5113398;28;19915;-53
2022/04/26 09:02:10;;;;;;;;;;;;;;;;;;5113147;28;19933;-57
2022/04/26 09:04:36;;;;;;;;;;;;;;;;;;5113039;28;19950;-48
2022/04/26 09:07:03;;;;;;;;;;;;;;;;;;5113067;28;19953;-44
2022/04/26 09:09:29;;;;;;;;;;;;;;;;;;5112976;28;20326;-47
2022/04/26 09:11:55;;;;;;;;;;;;;;;;;;5112652;28;20319;-53
2022/04/26 09:14:22;;;;;;;;;;;;;;;;;;5113272;28;20251;-58
2022/04/26 09:16:48;;;;;;;;;;;;;;;;;;5113137;28;20277;-54
2022/04/26 09:19:15;;;;;;;;;;;;;;;;;;5112925;28;20021;-56
2022/04/26 09:21:41;;;;;;;;;;;;;;;;;;5115559;28;19912;-53
2022/04/26 09:24:08;;;;;;;;;;;;;;;;;;5117322;27;19921;-53
2022/04/26 09:26:34;;;;;;;;;;;;;;;;;;5116820;28;20173;-56
2022/04/26 09:29:01;;;;;;;;;;;;;;;;;;5116669;28;19996;-48
2022/04/26 09:31:27;;;;;;;;;;;;;;;;;;5116826;28;19934;-52
2022/04/26 09:33:56;;;;;;;;;;;;;;;;;;5117157;28;20415;-52
2022/04/26 09:36:24;;;;;;;;;;;;;;;;;;5117050;28;19908;-57
2022/04/26 09:38:50;;;;;;;;;;;;;;;;;;5117300;28;19908;-49
2022/04/26 09:41:17;;;;;;;;;;;;;;;;;;5116532;28;19915;-57
2022/04/26 09:43:43;;;;;;;;;;;;;;;;;;5117073;28;20002;-56
2022/04/26 09:46:10;;;;;;;;;;;;;;;;;;5116764;28;19915;-54
2022/04/26 09:48:36;;;;;;;;;;;;;;;;;;5116890;28;20365;-49
2022/04/26 09:51:03;;;;;;;;;;;;;;;;;;5096363;28;19935;-43
2022/04/26 09:53:32;;;;;;;;;;;;;;;;;;5096593;28;20362;-52
2022/04/26 09:55:59;;;;;;;;;;;;;;;;;;5110425;28;19915;-58
2022/04/26 09:58:27;;;;;;;;;;;;;;;;;;5116351;28;19999;-54
2022/04/26 10:00:54;;;;;;;;;;;;;;;;;;5116927;28;19918;-53
2022/04/26 10:03:20;;;;;;;;;;;;;;;;;;5116044;28;19933;-59
2022/04/26 10:05:49;;;;;;;;;;;;;;;;;;5116379;28;19927;-55
2022/04/26 10:08:15;;;;;;;;;;;;;;;;;;5116759;28;19904;-56
2022/04/26 10:10:42;;;;;;;;;;;;;;;;;;5116312;28;20326;-60
2022/04/26 10:15:53;;;;;;;;;;;;;;;;;;5116152;28;20052;-58
2022/04/26 10:18:19;;;;;;;;;;;;;;;;;;5116412;28;20000;-56
2022/04/26 10:20:46;;;;;;;;;;;;;;;;;;5116289;27;19911;-57
2022/04/26 10:23:12;;;;;;;;;;;;;;;;;;5115911;28;19943;-55
2022/04/26 10:25:39;;;;;;;;;;;;;;;;;;5115485;28;20003;-55
2022/04/26 10:28:05;;;;;;;;;;;;;;;;;;5115774;28;19908;-55
2022/04/26 10:30:31;;;;;;;;;;;;;;;;;;5115986;28;19966;-52
2022/04/26 10:32:58;;;;;;;;;;;;;;;;;;5115147;28;19908;-51
2022/04/26 10:35:24;;;;;;;;;;;;;;;;;;5116000;27;20366;-52
2022/04/26 10:37:51;;;;;;;;;;;;;;;;;;5115775;28;19912;-55
2022/04/26 10:40:17;;;;;;;;;;;;;;;;;;5116125;28;19912;-54
2022/04/26 10:42:46;;;;;;;;;;;;;;;;;;5115961;28;19930;-54
2022/04/26 10:45:12;;;;;;;;;;;;;;;;;;5115610;27;19946;-50
2022/04/26 10:47:40;;;;;;;;;;;;;;;;;;5116347;28;19939;-56
2022/04/26 10:50:07;;;;;;;;;;;;;;;;;;5116002;28;20366;-50
2022/04/26 10:52:36;;;;;;;;;;;;;;;;;;5115594;28;20350;-58
2022/04/26 10:55:06;;;;;;;;;;;;;;;;;;5115462;27;20344;-50
2022/04/26 10:57:33;;;;;;;;;;;;;;;;;;5115091;27;19908;-50
2022/04/26 11:00:02;;;;;;;;;;;;;;;;;;5115578;28;19955;-56
2022/04/26 11:02:29;;;;;;;;;;;;;;;;;;5115511;28;19903;-55
2022/04/26 11:04:55;;;;;;;;;;;;;;;;;;5114680;28;19942;-56
2022/04/26 11:07:25;;;;;;;;;;;;;;;;;;5114936;28;20316;-50
2022/04/26 11:09:53;;;;;;;;;;;;;;;;;;5115023;28;19927;-57
2022/04/26 11:12:19;;;;;;;;;;;;;;;;;;5114605;28;19907;-56
2022/04/26 11:14:46;;;;;;;;;;;;;;;;;;5113856;28;19908;-56
2022/04/26 11:17:12;;;;;;;;;;;;;;;;;;5115048;28;19904;-57
2022/04/26 11:19:40;;;;;;;;;;;;;;;;;;5115079;28;19916;-54
2022/04/26 11:22:06;;;;;;;;;;;;;;;;;;5115042;28;19953;-56
2022/04/26 11:30:02;;;;;;;;;;;;;;;;;;5114904;28;19927;-48
2022/04/26 11:32:30;;;;;;;;;;;;;;;;;;5115333;28;19907;-50
2022/04/26 11:34:56;;;;;;;;;;;;;;;;;;5114895;28;19908;-53
2022/04/26 11:37:23;;;;;;;;;;;;;;;;;;5114674;28;20600;-57
2022/04/26 11:39:49;;;;;;;;;;;;;;;;;;5114410;28;20270;-51
2022/04/26 11:42:16;;;;;;;;;;;;;;;;;;5114598;28;19914;-48
2022/04/26 11:44:42;;;;;;;;;;;;;;;;;;5113991;28;19914;-55
2022/04/26 11:47:13;;;;;;;;;;;;;;;;;;5114661;28;19933;-52
2022/04/26 11:49:39;;;;;;;;;;;;;;;;;;5113332;28;19916;-52
2022/04/26 11:52:05;;;;;;;;;;;;;;;;;;5114324;28;19907;-53
2022/04/26 11:54:32;;;;;;;;;;;;;;;;;;5114017;28;19904;-55
2022/04/26 11:56:58;;;;;;;;;;;;;;;;;;5114668;28;19915;-54
2022/04/26 11:59:25;;;;;;;;;;;;;;;;;;5114214;28;19908;-56
2022/04/26 12:01:51;;;;;;;;;;;;;;;;;;5113923;28;20002;-53
2022/04/26 12:04:18;;;;;;;;;;;;;;;;;;5113925;28;19964;-54
2022/04/26 12:06:54;;;;;;;;;;;;;;;;;;5103152;27;19913;-50
2022/04/26 12:09:23;;;;;;;;;;;;;;;;;;5070159;28;20375;-48
2022/04/26 12:11:49;;;;;;;;;;;;;;;;;;5089150;28;19908;-43
2022/04/26 12:14:16;;;;;;;;;;;;;;;;;;5090473;28;20003;-47
2022/04/26 12:16:43;;;;;;;;;;;;;;;;;;5090362;28;19912;-48
2022/04/26 12:19:09;;;;;;;;;;;;;;;;;;5090205;28;19912;-49
2022/04/26 12:21:36;;;;;;;;;;;;;;;;;;5089536;28;20327;-46
2022/04/26 12:24:02;;;;;;;;;;;;;;;;;;5090289;28;20291;-45
2022/04/26 12:26:29;;;;;;;;;;;;;;;;;;5089891;28;20278;-53
2022/04/26 12:28:55;;;;;;;;;;;;;;;;;;5090264;28;19962;-52
2022/04/26 12:31:22;;;;;;;;;;;;;;;;;;5088940;28;19959;-51
2022/04/26 12:33:48;;;;;;;;;;;;;;;;;;5089329;28;20008;-47
2022/04/26 12:36:14;;;;;;;;;;;;;;;;;;5090178;28;19927;-47
2022/04/26 12:38:41;;;;;;;;;;;;;;;;;;5090211;28;20367;-53
2022/04/26 12:41:08;;;;;;;;;;;;;;;;;;5089823;28;20355;-46
2022/04/26 12:43:34;;;;;;;;;;;;;;;;;;5089513;28;20000;-53
2022/04/26 12:46:02;;;;;;;;;;;;;;;;;;5087514;28;20010;-52
2022/04/26 12:51:13;;;;;;;;;;;;;;;;;;5069688;28;19923;-52
2022/04/26 12:53:39;;;;;;;;;;;;;;;;;;5069589;28;20278;-46
2022/04/26 12:56:06;;;;;;;;;;;;;;;;;;5069479;28;20244;-47
2022/04/26 12:58:32;;;;;;;;;;;;;;;;;;5069259;28;19909;-52
2022/04/26 13:00:59;;;;;;;;;;;;;;;;;;5069545;28;19915;-51
2022/04/26 13:03:25;;;;;;;;;;;;;;;;;;5069187;28;19954;-51
2022/04/26 13:05:52;;;;;;;;;;;;;;;;;;5069279;28;19925;-49
2022/04/26 13:08:18;;;;;;;;;;;;;;;;;;5069225;28;19936;-47
2022/04/26 13:10:45;;;;;;;;;;;;;;;;;;5087771;28;20017;-52
2022/04/26 13:13:11;;;;;;;;;;;;;;;;;;5089378;28;19913;-48
2022/04/26 13:15:38;;;;;;;;;;;;;;;;;;5089523;28;19935;-50
2022/04/26 13:18:04;;;;;;;;;;;;;;;;;;5076748;28;19908;-56
2022/04/26 13:20:32;;;;;;;;;;;;;;;;;;5076054;28;19959;-54
2022/04/26 13:22:58;;;;;;;;;;;;;;;;;;5069319;28;19909;-56
2022/04/26 13:25:25;;;;;;;;;;;;;;;;;;5055726;28;20264;-54
2022/04/26 13:27:52;;;;;;;;;;;;;;;;;;5055738;28;19909;-48
2022/04/26 13:30:18;;;;;;;;;;;;;;;;;;5055594;28;20339;-53
2022/04/26 13:32:45;;;;;;;;;;;;;;;;;;5067156;28;19908;-51
2022/04/26 13:35:11;;;;;;;;;;;;;;;;;;5075671;28;19909;-50
2022/04/26 13:37:38;;;;;;;;;;;;;;;;;;5075515;28;19915;-54
2022/04/26 13:40:05;;;;;;;;;;;;;;;;;;5075464;28;19916;-56
2022/04/26 13:42:31;;;;;;;;;;;;;;;;;;5075697;28;19931;-52
2022/04/26 13:44:58;;;;;;;;;;;;;;;;;;5075665;28;20053;-45
2022/04/26 13:47:24;;;;;;;;;;;;;;;;;;5075492;28;19913;-49
2022/04/26 13:49:54;;;;;;;;;;;;;;;;;;5075630;28;19909;-50
2022/04/26 13:52:20;;;;;;;;;;;;;;;;;;5075985;28;20009;-51
2022/04/26 13:54:47;;;;;;;;;;;;;;;;;;5075211;28;19908;-56
2022/04/26 13:57:14;;;;;;;;;;;;;;;;;;5074995;28;19913;-49
2022/04/26 13:59:41;;;;;;;;;;;;;;;;;;5075275;28;19908;-53
2022/04/26 14:02:07;;;;;;;;;;;;;;;;;;5075493;28;19949;-56
2022/04/26 14:04:34;;;;;;;;;;;;;;;;;;5074963;28;19912;-56
2022/04/26 14:07:00;;;;;;;;;;;;;;;;;;5075023;28;19961;-57
2022/04/26 14:09:27;;;;;;;;;;;;;;;;;;5074112;28;19912;-57
2022/04/26 14:11:56;;;;;;;;;;;;;;;;;;5075142;28;19912;-56
2022/04/26 14:22:37;;;;;;;;;;;;;;;;;;5074732;28;20408;-52
2022/04/26 14:25:03;;;;;;;;;;;;;;;;;;5074330;28;19996;-54
2022/04/26 14:27:30;;;;;;;;;;;;;;;;;;5074872;28;20377;-54
2022/04/26 14:29:56;;;;;;;;;;;;;;;;;;5073553;28;19999;-55
2022/04/26 14:32:23;;;;;;;;;;;;;;;;;;5074675;28;19909;-51
2022/04/26 14:34:49;;;;;;;;;;;;;;;;;;5074148;28;19908;-54
2022/04/26 14:37:16;;;;;;;;;;;;;;;;;;5074194;28;20286;-55
2022/04/26 14:39:42;;;;;;;;;;;;;;;;;;5074322;28;19931;-55
2022/04/26 14:42:09;;;;;;;;;;;;;;;;;;5074320;28;19908;-56
2022/04/26 14:44:36;;;;;;;;;;;;;;;;;;5073792;28;19908;-52
2022/04/26 14:47:02;;;;;;;;;;;;;;;;;;5072988;28;19908;-56
2022/04/26 14:49:29;;;;;;;;;;;;;;;;;;5074291;28;19915;-56
2022/04/26 14:51:55;;;;;;;;;;;;;;;;;;5072607;28;19924;-56
2022/04/26 14:54:21;;;;;;;;;;;;;;;;;;5074068;28;19948;-56
2022/04/26 14:56:48;;;;;;;;;;;;;;;;;;5074195;28;19909;-56
2022/04/26 14:59:15;;;;;;;;;;;;;;;;;;5073872;28;19909;-51
2022/04/26 15:01:45;;;;;;;;;;;;;;;;;;5074157;28;20292;-50
2022/04/26 15:04:12;;;;;;;;;;;;;;;;;;5068660;28;19909;-55
2022/04/26 15:06:38;;;;;;;;;;;;;;;;;;5053614;28;20283;-55
2022/04/26 15:16:37;;;;;;;;;;;;;;;;;;5073680;28;19931;-52
2022/04/26 15:17:20;;;;;;;;;;;;;;;;;;5073520;28;20019;-53
2022/04/26 15:19:48;;;;;;;;;;;;;;;;;;5073730;28;19954;-56
2022/04/26 15:22:17;;;;;;;;;;;;;;;;;;5073462;28;19909;-54
2022/04/26 15:24:43;;;;;;;;;;;;;;;;;;5073015;28;19920;-53
2022/04/26 15:27:10;;;;;;;;;;;;;;;;;;5073346;28;19935;-46
2022/04/26 15:29:36;;;;;;;;;;;;;;;;;;5073525;28;19908;-54
2022/04/26 15:32:03;;;;;;;;;;;;;;;;;;5073755;28;20335;-51
2022/04/26 15:34:29;;;;;;;;;;;;;;;;;;5073383;28;19915;-53
2022/04/26 15:36:56;;;;;;;;;;;;;;;;;;5073342;28;19912;-57
2022/04/26 15:39:23;;;;;;;;;;;;;;;;;;5072832;28;19995;-54
2022/04/26 15:41:49;;;;;;;;;;;;;;;;;;5073333;28;19991;-57
2022/04/26 15:44:16;;;;;;;;;;;;;;;;;;5073282;28;19908;-53
2022/04/26 15:46:42;;;;;;;;;;;;;;;;;;5071860;28;20001;-56
2022/04/26 15:49:09;;;;;;;;;;;;;;;;;;5072967;28;19932;-53
2022/04/26 15:51:36;;;;;;;;;;;;;;;;;;5066522;28;20015;-50
2022/04/26 15:54:03;;;;;;;;;;;;;;;;;;5052909;28;19908;-56
2022/04/26 15:56:29;;;;;;;;;;;;;;;;;;5052849;28;19909;-55
2022/04/26 15:58:56;;;;;;;;;;;;;;;;;;5053154;28;20338;-52
2022/04/26 16:01:25;;;;;;;;;;;;;;;;;;5053030;28;19940;-54
2022/04/26 16:03:52;;;;;;;;;;;;;;;;;;5052921;28;19932;-52
2022/04/26 16:06:19;;;;;;;;;;;;;;;;;;5066953;28;19920;-49
2022/04/26 16:08:46;;;;;;;;;;;;;;;;;;5073049;28;19908;-54
2022/04/26 16:22:11;;;;;;;;;;;;;;;;;;5073106;28;19962;-53
2022/04/26 16:24:40;;;;;;;;;;;;;;;;;;5072716;28;20014;-51
2022/04/26 16:27:07;;;;;;;;;;;;;;;;;;5072349;28;19989;-55
2022/04/26 16:29:33;;;;;;;;;;;;;;;;;;5073093;28;19967;-57
2022/04/26 16:31:59;;;;;;;;;;;;;;;;;;5073147;28;19916;-52
2022/04/26 16:34:27;;;;;;;;;;;;;;;;;;5072509;28;19908;-55
2022/04/26 16:36:54;;;;;;;;;;;;;;;;;;5071497;28;19954;-57
2022/04/26 16:39:20;;;;;;;;;;;;;;;;;;5072353;28;19909;-52
2022/04/26 16:41:47;;;;;;;;;;;;;;;;;;5072747;28;20007;-52
2022/04/26 16:44:13;;;;;;;;;;;;;;;;;;5072699;28;19915;-47
2022/04/26 16:46:40;;;;;;;;;;;;;;;;;;5072600;28;19916;-42
2022/04/26 16:49:06;;;;;;;;;;;;;;;;;;5072577;28;19939;-42
2022/04/26 16:51:34;;;;;;;;;;;;;;;;;;5072842;28;19909;-52
2022/04/26 16:54:01;;;;;;;;;;;;;;;;;;5076114;28;19931;-40
2022/04/26 16:56:27;;;;;;;;;;;;;;;;;;5076631;28;19941;-39
2022/04/26 16:58:54;;;;;;;;;;;;;;;;;;5074942;28;19966;-40
2022/04/26 17:01:20;;;;;;;;;;;;;;;;;;5075921;28;19909;-45
2022/04/26 17:03:47;;;;;;;;;;;;;;;;;;5076084;28;19958;-49
2022/04/26 17:06:13;;;;;;;;;;;;;;;;;;5075756;28;20012;-52
2022/04/26 17:08:41;;;;;;;;;;;;;;;;;;5076052;28;20431;-53
2022/04/26 17:13:52;;;;;;;;;;;;;;;;;;5075771;28;20046;-52
2022/04/26 17:16:19;;;;;;;;;;;;;;;;;;5075951;28;20003;-52
2022/04/26 17:18:46;;;;;;;;;;;;;;;;;;5075563;28;20037;-46
2022/04/26 17:21:12;;;;;;;;;;;;;;;;;;5075741;28;19962;-52
2022/04/26 17:23:39;;;;;;;;;;;;;;;;;;5076180;28;19915;-45
2022/04/26 17:26:06;;;;;;;;;;;;;;;;;;5075297;28;19932;-47
2022/04/26 17:28:32;;;;;;;;;;;;;;;;;;5076125;28;20373;-48
2022/04/26 17:30:58;;;;;;;;;;;;;;;;;;5075523;28;20314;-44
2022/04/26 17:33:26;;;;;;;;;;;;;;;;;;5075685;28;19909;-50
2022/04/26 17:35:52;;;;;;;;;;;;;;;;;;5075972;28;19908;-49
2022/04/26 17:38:19;;;;;;;;;;;;;;;;;;5075816;28;19915;-49
2022/04/26 17:40:45;;;;;;;;;;;;;;;;;;5075311;28;19912;-49
2022/04/26 17:43:13;;;;;;;;;;;;;;;;;;5075172;28;19999;-48
2022/04/26 17:45:41;;;;;;;;;;;;;;;;;;5075560;28;19952;-52
2022/04/26 17:48:08;;;;;;;;;;;;;;;;;;5075391;28;19908;-47
2022/04/26 17:50:35;;;;;;;;;;;;;;;;;;5075460;28;19969;-56
2022/04/26 17:58:38;;;;;;;;;;;;;;;;;;5074890;28;19916;-52
2022/04/26 18:01:04;;;;;;;;;;;;;;;;;;5075039;28;19909;-52
2022/04/26 18:03:31;;;;;;;;;;;;;;;;;;5075031;28;20368;-52
2022/04/26 18:05:57;;;;;;;;;;;;;;;;;;5074780;28;20359;-53
2022/04/26 18:08:25;;;;;;;;;;;;;;;;;;5074811;28;19958;-56
2022/04/26 18:10:52;;;;;;;;;;;;;;;;;;5075032;28;19909;-55
2022/04/26 18:13:18;;;;;;;;;;;;;;;;;;5074556;28;19961;-49
2022/04/26 18:15:45;;;;;;;;;;;;;;;;;;5074925;28;19909;-55
2022/04/26 18:18:11;;;;;;;;;;;;;;;;;;5074712;28;19908;-52
2022/04/26 18:20:38;;;;;;;;;;;;;;;;;;5074709;28;19994;-52
2022/04/26 18:23:05;;;;;;;;;;;;;;;;;;5074556;28;20045;-53
2022/04/26 18:28:16;;;;;;;;;;;;;;;;;;5074685;28;19915;-56
2022/04/26 18:30:42;;;;;;;;;;;;;;;;;;5074702;28;20013;-55
2022/04/26 18:33:09;;;;;;;;;;;;;;;;;;5074151;28;19908;-55
2022/04/26 18:35:35;;;;;;;;;;;;;;;;;;5074353;28;19909;-57
2022/04/26 18:38:02;;;;;;;;;;;;;;;;;;5074589;28;19908;-54
2022/04/26 18:40:28;;;;;;;;;;;;;;;;;;5074036;28;19908;-56
2022/04/26 18:42:55;;;;;;;;;;;;;;;;;;5074300;28;19975;-52
2022/04/26 18:45:24;;;;;;;;;;;;;;;;;;5074069;28;19918;-50
2022/04/26 18:47:50;;;;;;;;;;;;;;;;;;5073961;28;19912;-46
2022/04/26 18:50:17;;;;;;;;;;;;;;;;;;5074274;28;19947;-53
2022/04/26 18:52:43;;;;;;;;;;;;;;;;;;5074003;28;19951;-50
2022/04/26 18:55:10;;;;;;;;;;;;;;;;;;5073732;28;19909;-41
2022/04/26 18:57:37;;;;;;;;;;;;;;;;;;5074647;28;19995;-49
2022/04/26 19:00:03;;;;;;;;;;;;;;;;;;5074047;28;19999;-52
2022/04/26 19:02:29;;;;;;;;;;;;;;;;;;5073948;28;19908;-52
2022/04/26 19:04:56;;;;;;;;;;;;;;;;;;5073349;28;19919;-47
2022/04/26 19:07:22;;;;;;;;;;;;;;;;;;5073604;28;19920;-44
2022/04/26 19:12:34;;;;;;;;;;;;;;;;;;5073936;28;19920;-52
2022/04/26 19:15:00;;;;;;;;;;;;;;;;;;5073220;28;20300;-48
2022/04/26 19:17:27;;;;;;;;;;;;;;;;;;5073290;28;19915;-53
2022/04/26 19:19:53;;;;;;;;;;;;;;;;;;5072112;28;20050;-47
2022/04/26 19:22:20;;;;;;;;;;;;;;;;;;5073778;28;19982;-52
2022/04/26 19:24:47;;;;;;;;;;;;;;;;;;5073049;28;19994;-53
2022/04/26 19:27:13;;;;;;;;;;;;;;;;;;5073404;28;19912;-53
2022/04/26 19:29:39;;;;;;;;;;;;;;;;;;5073011;28;19909;-56
2022/04/26 19:32:06;;;;;;;;;;;;;;;;;;5073534;28;20347;-50
2022/04/26 19:34:32;;;;;;;;;;;;;;;;;;5073286;28;20271;-53
2022/04/26 19:36:59;;;;;;;;;;;;;;;;;;5073523;28;19909;-52
2022/04/26 19:39:25;;;;;;;;;;;;;;;;;;5073145;28;19908;-54
2022/04/26 19:41:52;;;;;;;;;;;;;;;;;;5073230;28;19909;-52
2022/04/26 19:44:18;;;;;;;;;;;;;;;;;;5073302;28;19944;-54
2022/04/26 19:46:45;;;;;;;;;;;;;;;;;;5072952;28;20382;-55
2022/04/26 19:49:12;;;;;;;;;;;;;;;;;;5073129;28;19961;-51
2022/04/26 19:51:40;;;;;;;;;;;;;;;;;;5072962;28;19905;-52
2022/04/26 19:54:07;;;;;;;;;;;;;;;;;;5072631;28;19916;-52
2022/04/26 19:56:33;;;;;;;;;;;;;;;;;;5073016;28;19914;-55
2022/04/26 19:59:00;;;;;;;;;;;;;;;;;;5066152;28;19909;-52
2022/04/26 20:01:26;;;;;;;;;;;;;;;;;;5052567;28;19916;-52
2022/04/26 20:03:53;;;;;;;;;;;;;;;;;;5052694;28;19908;-53
2022/04/26 20:06:20;;;;;;;;;;;;;;;;;;5052598;28;19921;-57
2022/04/26 20:08:46;;;;;;;;;;;;;;;;;;5052668;28;19909;-50
2022/04/26 20:11:14;;;;;;;;;;;;;;;;;;5052686;28;20379;-47
2022/04/26 20:13:40;;;;;;;;;;;;;;;;;;5052955;28;20007;-49
2022/04/26 20:16:07;;;;;;;;;;;;;;;;;;5052789;28;19913;-57
2022/04/26 20:18:33;;;;;;;;;;;;;;;;;;5052250;28;19913;-55
2022/04/26 20:21:00;;;;;;;;;;;;;;;;;;5052468;28;19977;-54
2022/04/26 20:23:26;;;;;;;;;;;;;;;;;;5071158;28;19909;-53
2022/04/26 20:31:23;;;;;;;;;;;;;;;;;;5076274;28;19931;-42
2022/04/26 20:33:50;;;;;;;;;;;;;;;;;;5076317;28;19995;-46
2022/04/26 20:36:16;;;;;;;;;;;;;;;;;;5076723;28;20369;-53
2022/04/26 20:38:42;;;;;;;;;;;;;;;;;;5075854;28;19912;-45
2022/04/26 20:41:09;;;;;;;;;;;;;;;;;;5075965;28;20343;-49
2022/04/26 20:43:35;;;;;;;;;;;;;;;;;;5076374;28;19909;-51
2022/04/26 20:46:02;;;;;;;;;;;;;;;;;;5076112;28;20011;-53
2022/04/26 20:48:29;;;;;;;;;;;;;;;;;;5075805;28;19916;-50
2022/04/26 20:50:56;;;;;;;;;;;;;;;;;;5074737;28;20256;-53
2022/04/26 20:53:22;;;;;;;;;;;;;;;;;;5059650;28;20268;-56
2022/04/26 20:55:49;;;;;;;;;;;;;;;;;;5055884;28;19913;-49
2022/04/26 20:58:15;;;;;;;;;;;;;;;;;;5055630;28;20240;-53
2022/04/26 21:00:42;;;;;;;;;;;;;;;;;;5055958;28;19987;-57
2022/04/26 21:03:08;;;;;;;;;;;;;;;;;;5054628;28;19909;-49
2022/04/26 21:05:35;;;;;;;;;;;;;;;;;;5055619;28;19944;-54
2022/04/26 21:08:01;;;;;;;;;;;;;;;;;;5055457;28;19915;-56
2022/04/26 21:10:28;;;;;;;;;;;;;;;;;;5070815;28;19909;-47
2022/04/26 21:15:38;;;;;;;;;;;;;;;;;;5075563;28;19915;-48
2022/04/26 21:18:05;;;;;;;;;;;;;;;;;;5075039;28;19981;-50
2022/04/26 21:20:31;;;;;;;;;;;;;;;;;;5075055;28;19932;-47
2022/04/26 21:22:58;;;;;;;;;;;;;;;;;;5075225;28;20366;-55
2022/04/26 21:25:24;;;;;;;;;;;;;;;;;;5074804;28;20003;-50
2022/04/26 21:27:51;;;;;;;;;;;;;;;;;;5075328;28;19909;-45
2022/04/26 21:30:17;;;;;;;;;;;;;;;;;;5073531;28;19958;-54